Time;durP1;ratioP1;P1;durP2;ratioP2;P2;SDS_P1;SDS_P2;PMS_P1;PMS_P2;Temp;Humidity;BMP_temperature;BMP_pressure;BME280_temperature;BME280_humidity;BME280_pressure;Samples;Min_cycle;Max_cycle;Signal;HPM_P1;HPM_P2
2021/12/19 00:09:56;;;;;;;18.05;8.68;;;18.80;48.90;;;;;;4141959;28;10020732;-56
2021/12/19 00:12:29;;;;;;;14.45;8.85;;;18.90;49.40;;;;;;5171015;28;20068;-54
2021/12/19 00:15:02;;;;;;;16.30;8.52;;;19.10;49.60;;;;;;5177208;28;20056;-56
2021/12/19 00:17:35;;;;;;;;;;;19.20;49.70;;;;;;5179470;28;20045;-57
2021/12/19 00:20:08;;;;;;;12.00;8.02;;;19.30;49.90;;;;;;5182342;28;19925;-53
2021/12/19 00:23:00;;;;;;;11.40;7.53;;;19.40;49.70;;;;;;5178963;28;20477;-56
2021/12/19 00:25:33;;;;;;;10.60;7.72;;;19.50;49.80;;;;;;5176699;28;20449;-54
2021/12/19 00:28:06;;;;;;;14.03;6.93;;;19.50;49.90;;;;;;5176525;28;20052;-56
2021/12/19 00:30:38;;;;;;;9.75;7.07;;;19.60;49.90;;;;;;5175579;28;20057;-55
2021/12/19 00:33:11;;;;;;;11.75;7.43;;;19.60;50.00;;;;;;5175232;28;20760;-55
2021/12/19 00:35:44;;;;;;;10.45;6.93;;;19.70;50.00;;;;;;5178354;28;20126;-56
2021/12/19 00:38:16;;;;;;;11.70;6.88;;;19.80;50.00;;;;;;5180794;28;20046;-54
2021/12/19 00:40:49;;;;;;;10.23;6.82;;;19.80;50.00;;;;;;5178510;28;20053;-54
2021/12/19 00:43:25;;;;;;;12.48;6.63;;;19.80;50.00;;;;;;5175200;28;20058;-54
2021/12/19 00:46:04;;;;;;;13.88;6.90;;;19.90;50.00;;;;;;5176968;28;20041;-56
2021/12/19 00:48:42;;;;;;;9.52;7.13;;;19.90;50.00;;;;;;5181280;28;20052;-57
2021/12/19 00:51:18;;;;;;;10.35;6.90;;;19.90;50.10;;;;;;5174446;28;20045;-57
2021/12/19 00:53:52;;;;;;;7.45;5.38;;;20.00;50.10;;;;;;5179464;28;20088;-56
2021/12/19 00:56:25;;;;;;;8.63;6.40;;;20.00;50.10;;;;;;5179847;28;20045;-56
2021/12/19 00:58:58;;;;;;;;;;;20.00;50.00;;;;;;5185582;28;20041;-51
2021/12/19 01:01:31;;;;;;;7.80;6.47;;;20.00;50.80;;;;;;5173627;28;19929;-56
2021/12/19 01:04:07;;;;;;;8.45;6.10;;;20.10;50.20;;;;;;5179842;28;20060;-58
2021/12/19 01:06:41;;;;;;;7.40;5.85;;;20.10;50.20;;;;;;5176176;28;20432;-57
2021/12/19 01:09:14;;;;;;;10.85;5.88;;;20.20;50.30;;;;;;5184852;28;20049;-54
2021/12/19 01:11:49;;;;;;;8.48;6.25;;;20.20;50.40;;;;;;5177043;28;20045;-54
2021/12/19 01:14:21;;;;;;;11.32;6.63;;;20.20;50.40;;;;;;5176486;28;20049;-54
2021/12/19 01:16:54;;;;;;;9.52;5.88;;;20.20;50.30;;;;;;5175887;28;20557;-53
2021/12/19 01:19:27;;;;;;;7.93;5.93;;;20.30;50.30;;;;;;5179848;28;20049;-57
2021/12/19 01:21:59;;;;;;;9.45;5.45;;;20.30;50.30;;;;;;5178060;28;20489;-54
2021/12/19 01:24:32;;;;;;;11.60;6.33;;;20.30;50.30;;;;;;5196027;28;20050;-57
2021/12/19 01:27:06;;;;;;;11.50;6.28;;;20.30;50.30;;;;;;5181042;28;20041;-57
2021/12/19 01:29:38;;;;;;;8.80;6.28;;;20.30;50.20;;;;;;5179858;28;20053;-54
2021/12/19 01:32:11;;;;;;;8.57;5.95;;;20.40;50.30;;;;;;5178966;28;20042;-57
2021/12/19 01:34:43;;;;;;;8.32;5.60;;;20.40;50.20;;;;;;5177172;28;20045;-57
2021/12/19 01:37:16;;;;;;;7.65;5.63;;;20.40;50.20;;;;;;5174944;28;20041;-56
2021/12/19 01:39:48;;;;;;;7.25;5.65;;;20.40;50.10;;;;;;5177492;28;20059;-52
2021/12/19 01:42:21;;;;;;;9.32;5.88;;;20.50;50.10;;;;;;5181823;28;20069;-57
2021/12/19 01:44:53;;;;;;;7.03;5.13;;;20.50;50.10;;;;;;5180441;28;20416;-56
2021/12/19 01:47:26;;;;;;;6.68;5.40;;;20.50;50.00;;;;;;5177251;28;20081;-56
2021/12/19 01:49:58;;;;;;;8.68;6.30;;;20.50;50.10;;;;;;5176667;28;20504;-56
2021/12/19 01:52:31;;;;;;;7.75;5.68;;;20.50;50.00;;;;;;5154743;28;20497;-56
2021/12/19 01:55:04;;;;;;;7.25;5.40;;;20.50;50.00;;;;;;5179459;28;20053;-56
2021/12/19 01:57:36;;;;;;;9.10;5.90;;;20.50;49.90;;;;;;5183062;28;20573;-57
2021/12/19 02:00:19;;;;;;;7.28;5.57;;;20.60;49.90;;;;;;5177715;28;20065;-58
2021/12/19 02:02:53;;;;;;;6.93;5.23;;;20.60;49.80;;;;;;5174634;28;20057;-58
2021/12/19 02:05:27;;;;;;;6.25;4.97;;;20.60;49.90;;;;;;5180322;28;20414;-50
2021/12/19 02:08:00;;;;;;;8.95;5.82;;;20.60;49.80;;;;;;5178297;28;20049;-56
2021/12/19 02:10:34;;;;;;;7.17;5.67;;;20.60;49.80;;;;;;5178551;28;20061;-53
2021/12/19 02:13:10;;;;;;;7.53;5.47;;;20.60;49.70;;;;;;5173487;28;20410;-55
2021/12/19 02:15:44;;;;;;;7.82;5.60;;;20.60;49.70;;;;;;5179908;28;21020;-54
2021/12/19 02:18:24;;;;;;;7.40;5.18;;;20.60;49.70;;;;;;5182986;28;20045;-53
2021/12/19 02:20:58;;;;;;;8.48;5.22;;;20.70;49.70;;;;;;5178247;28;20568;-54
2021/12/19 02:23:30;;;;;;;13.93;6.07;;;20.70;49.70;;;;;;5179180;28;20536;-54
2021/12/19 02:26:03;;;;;;;8.50;5.63;;;20.70;49.60;;;;;;5177941;28;20135;-52
2021/12/19 02:28:35;;;;;;;10.50;5.88;;;20.70;49.60;;;;;;5177046;28;20421;-56
2021/12/19 02:31:08;;;;;;;11.88;5.43;;;20.70;49.60;;;;;;5182577;28;20692;-53
2021/12/19 02:33:44;;;;;;;12.43;4.70;;;20.70;49.60;;;;;;5179841;28;20405;-54
2021/12/19 02:50:25;;;;;;;9.45;5.78;;;20.70;49.30;;;;;;5176996;28;20049;-56
2021/12/19 02:52:59;;;;;;;8.43;5.47;;;20.70;49.30;;;;;;5178884;28;20045;-56
2021/12/19 02:55:32;;;;;;;11.20;6.15;;;20.70;49.30;;;;;;5182971;28;20069;-56
2021/12/19 02:58:04;;;;;;;7.65;5.72;;;20.80;49.30;;;;;;5175714;28;20048;-56
2021/12/19 03:00:38;;;;;;;8.82;5.15;;;20.70;49.20;;;;;;5177607;28;20042;-55
2021/12/19 03:03:11;;;;;;;10.10;5.63;;;20.80;49.20;;;;;;5178495;28;20693;-53
2021/12/19 03:05:43;;;;;;;10.55;6.28;;;20.80;49.10;;;;;;5175633;28;20045;-55
2021/12/19 03:08:16;;;;;;;10.57;6.07;;;20.80;49.10;;;;;;5168570;28;20077;-57
2021/12/19 03:18:45;;;;;;;8.45;6.00;;;20.80;49.00;;;;;;5166829;28;20053;-55
2021/12/19 03:21:19;;;;;;;8.02;5.55;;;20.80;49.00;;;;;;5170164;28;20054;-54
2021/12/19 03:23:52;;;;;;;8.30;5.88;;;20.80;49.10;;;;;;5169307;28;20388;-54
2021/12/19 03:26:24;;;;;;;7.50;5.03;;;20.80;49.10;;;;;;5173747;28;20060;-55
2021/12/19 03:28:57;;;;;;;7.20;4.95;;;20.80;49.30;;;;;;5176363;28;20287;-51
2021/12/19 03:31:30;;;;;;;8.50;4.78;;;20.80;49.40;;;;;;5176738;28;20041;-54
2021/12/19 03:34:02;;;;;;;7.15;4.78;;;20.80;49.50;;;;;;5168808;28;20045;-57
2021/12/19 03:36:35;;;;;;;6.68;4.45;;;20.90;49.80;;;;;;5174100;28;20038;-54
2021/12/19 03:39:14;;;;;;;7.55;5.15;;;20.90;49.80;;;;;;5181158;28;20041;-57
2021/12/19 03:41:47;;;;;;;6.72;4.10;;;20.90;50.00;;;;;;5180808;28;20502;-52
2021/12/19 03:44:19;;;;;;;9.13;4.60;;;20.90;50.00;;;;;;5175029;28;20052;-50
2021/12/19 03:46:52;;;;;;;11.10;4.68;;;20.90;50.10;;;;;;5174533;28;20049;-55
2021/12/19 03:49:24;;;;;;;6.20;4.25;;;20.90;50.10;;;;;;5185431;28;20057;-55
2021/12/19 03:51:57;;;;;;;6.10;4.65;;;20.90;50.20;;;;;;5179465;28;20101;-54
2021/12/19 03:54:29;;;;;;;7.88;4.30;;;20.90;50.30;;;;;;5172624;28;20045;-57
2021/12/19 03:57:02;;;;;;;8.60;3.85;;;20.90;50.40;;;;;;5176968;28;20046;-53
2021/12/19 03:59:34;;;;;;;5.47;4.20;;;20.90;50.40;;;;;;5168092;28;20042;-54
2021/12/19 04:02:07;;;;;;;6.53;4.72;;;20.90;50.50;;;;;;5174056;28;20081;-55
2021/12/19 04:04:40;;;;;;;4.78;4.18;;;21.00;50.60;;;;;;5182813;28;20649;-51
2021/12/19 04:07:13;;;;;;;4.35;3.47;;;20.90;50.60;;;;;;5183221;28;20053;-55
2021/12/19 04:09:46;;;;;;;5.97;4.30;;;20.90;50.60;;;;;;5180929;28;20061;-55
2021/12/19 04:12:21;;;;;;;7.03;3.78;;;21.00;50.80;;;;;;5179029;28;20061;-55
2021/12/19 04:14:54;;;;;;;5.65;3.95;;;20.90;50.80;;;;;;5185096;28;20050;-52
2021/12/19 04:17:26;;;;;;;5.90;3.90;;;20.90;50.90;;;;;;5184902;28;20038;-53
2021/12/19 04:19:59;;;;;;;6.57;4.25;;;21.00;51.10;;;;;;5177826;28;20042;-52
2021/12/19 04:22:31;;;;;;;5.40;3.95;;;21.00;51.10;;;;;;5182218;28;20052;-56
2021/12/19 04:25:04;;;;;;;4.90;3.63;;;21.00;51.10;;;;;;5171717;28;20508;-55
2021/12/19 04:27:37;;;;;;;6.55;4.00;;;21.00;51.20;;;;;;5182875;28;20038;-56
2021/12/19 04:30:13;;;;;;;5.97;3.50;;;21.00;51.30;;;;;;5184227;28;20420;-51
2021/12/19 04:32:56;;;;;;;4.95;3.30;;;21.00;51.30;;;;;;5182991;28;20038;-55
2021/12/19 04:35:33;;;;;;;4.65;3.22;;;21.00;51.30;;;;;;5181037;28;20064;-54
2021/12/19 04:44:38;;;;;;;5.05;3.40;;;21.00;51.50;;;;;;5184115;28;20688;-57
2021/12/19 04:57:50;;;;;;;12.65;3.50;;;21.10;51.80;;;;;;5180373;28;20545;-57
2021/12/19 05:00:34;;;;;;;5.60;3.75;;;21.00;51.80;;;;;;5188413;28;20533;-54
2021/12/19 05:03:32;;;;;;;6.57;3.90;;;21.00;51.90;;;;;;5175396;28;20038;-57
2021/12/19 05:14:23;;;;;;;6.80;3.63;;;21.10;52.10;;;;;;5184205;28;20041;-54
2021/12/19 05:17:02;;;;;;;7.95;3.40;;;21.00;52.10;;;;;;5179826;28;20049;-55
2021/12/19 05:19:46;;;;;;;13.65;3.92;;;21.10;52.10;;;;;;5177083;28;20068;-56
2021/12/19 05:22:20;;;;;;;6.22;3.28;;;21.10;52.20;;;;;;5179704;28;20056;-54
2021/12/19 05:25:01;;;;;;;6.13;3.58;;;21.00;52.20;;;;;;5178520;28;21038;-56
2021/12/19 05:27:33;;;;;;;8.32;3.65;;;21.10;52.30;;;;;;5182111;28;20622;-57
2021/12/19 05:30:06;;;;;;;8.65;3.70;;;21.10;52.30;;;;;;5178738;28;20407;-55
2021/12/19 05:32:41;;;;;;;6.38;3.22;;;21.10;52.30;;;;;;5182453;28;20060;-50
2021/12/19 05:35:20;;;;;;;6.38;3.30;;;21.10;52.40;;;;;;5177079;28;20052;-53
2021/12/19 05:46:25;;;;;;;5.53;3.90;;;21.10;52.60;;;;;;5182790;28;20049;-54
2021/12/19 05:48:57;;;;;;;5.97;3.47;;;21.10;52.70;;;;;;5182644;28;20525;-55
2021/12/19 05:51:30;;;;;;;7.93;3.10;;;21.10;52.70;;;;;;5197445;28;20052;-56
2021/12/19 05:54:03;;;;;;;6.90;3.25;;;21.10;52.70;;;;;;5179743;28;20048;-58
2021/12/19 05:56:36;;;;;;;6.30;3.30;;;21.10;52.70;;;;;;5182945;28;20049;-57
2021/12/19 05:59:09;;;;;;;6.18;3.03;;;21.10;52.80;;;;;;5177865;28;20508;-57
2021/12/19 06:01:43;;;;;;;5.00;3.03;;;21.20;52.80;;;;;;5183634;28;20053;-57
2021/12/19 06:04:15;;;;;;;8.68;3.90;;;21.20;52.80;;;;;;5178312;28;20056;-56
2021/12/19 06:06:48;;;;;;;10.27;3.28;;;21.20;52.90;;;;;;5180624;28;20045;-57
2021/12/19 06:09:20;;;;;;;5.22;3.28;;;21.20;52.90;;;;;;5179348;28;20506;-55
2021/12/19 06:11:52;;;;;;;7.15;2.78;;;21.20;52.90;;;;;;5180004;28;20046;-54
2021/12/19 06:14:31;;;;;;;6.63;3.28;;;21.20;52.90;;;;;;5180933;28;20480;-52
2021/12/19 06:17:04;;;;;;;7.65;3.22;;;21.20;52.90;;;;;;5174566;28;20045;-58
2021/12/19 06:19:37;;;;;;;;;;;21.20;52.90;;;;;;5178139;28;20049;-53
2021/12/19 06:22:09;;;;;;;4.93;3.15;;;21.10;53.00;;;;;;5173809;28;21263;-55
2021/12/19 06:24:42;;;;;;;5.35;3.05;;;21.20;53.10;;;;;;5176054;28;20056;-55
2021/12/19 06:27:14;;;;;;;8.43;3.90;;;21.20;53.10;;;;;;5177909;28;20060;-55
2021/12/19 06:29:47;;;;;;;6.13;3.13;;;21.20;53.20;;;;;;5178134;28;20049;-57
2021/12/19 06:32:19;;;;;;;8.45;2.78;;;21.20;53.30;;;;;;5184119;28;20044;-57
2021/12/19 06:34:51;;;;;;;9.38;2.88;;;21.20;53.20;;;;;;5172691;28;20109;-57
2021/12/19 06:37:24;;;;;;;5.70;2.78;;;21.20;53.30;;;;;;5188324;28;20541;-53
2021/12/19 06:39:56;;;;;;;7.47;2.95;;;21.20;53.30;;;;;;5184989;28;20509;-53
2021/12/19 06:42:28;;;;;;;7.35;3.70;;;21.30;53.40;;;;;;5180309;28;20060;-55
2021/12/19 06:45:02;;;;;;;4.60;3.25;;;21.30;53.40;;;;;;5162805;28;20093;-55
2021/12/19 06:47:35;;;;;;;4.43;2.90;;;21.30;53.40;;;;;;5170785;28;20058;-51
2021/12/19 06:50:09;;;;;;;4.57;2.63;;;21.30;53.50;;;;;;5179092;28;20231;-54
2021/12/19 06:52:42;;;;;;;5.57;3.58;;;21.30;53.50;;;;;;5176519;28;20045;-58
2021/12/19 06:55:16;;;;;;;6.57;3.38;;;21.30;53.50;;;;;;5174836;28;20056;-56
2021/12/19 06:57:48;;;;;;;10.10;3.10;;;21.30;53.50;;;;;;5175650;28;20241;-57
2021/12/19 07:00:24;;;;;;;6.07;3.20;;;21.30;53.70;;;;;;5163152;28;20492;-56
2021/12/19 07:02:57;;;;;;;7.35;3.13;;;21.30;53.60;;;;;;5163926;28;20052;-56
2021/12/19 07:05:29;;;;;;;7.60;3.50;;;21.30;53.70;;;;;;5167170;28;20045;-54
2021/12/19 07:08:02;;;;;;;10.98;3.08;;;21.30;53.70;;;;;;5164334;28;20064;-53
2021/12/19 07:10:35;;;;;;;5.90;2.95;;;21.40;53.80;;;;;;5163735;28;20108;-53
2021/12/19 07:13:07;;;;;;;10.50;3.10;;;21.40;53.80;;;;;;5177497;28;20050;-55
2021/12/19 07:15:40;;;;;;;8.05;3.42;;;21.40;53.70;;;;;;5174941;28;20386;-53
2021/12/19 07:18:12;;;;;;;5.72;2.97;;;21.40;53.70;;;;;;5173026;28;20046;-55
2021/12/19 07:20:45;;;;;;;8.88;3.40;;;21.40;53.80;;;;;;5175702;28;20053;-56
2021/12/19 07:23:20;;;;;;;9.02;3.13;;;21.40;53.70;;;;;;5177077;28;20045;-57
2021/12/19 07:25:53;;;;;;;6.53;2.97;;;21.40;53.80;;;;;;5168977;28;20053;-52
2021/12/19 07:28:25;;;;;;;6.28;2.78;;;21.40;53.80;;;;;;5175595;28;20068;-50
2021/12/19 07:30:57;;;;;;;7.85;3.05;;;21.40;53.80;;;;;;5183571;28;20513;-51
2021/12/19 07:33:30;;;;;;;11.90;2.90;;;21.40;53.80;;;;;;5173775;28;20450;-56
2021/12/19 07:36:03;;;;;;;9.23;3.25;;;21.40;53.80;;;;;;5161718;28;20037;-53
2021/12/19 07:38:47;;;;;;;7.23;2.83;;;21.40;53.80;;;;;;5178097;28;20094;-54
2021/12/19 07:41:20;;;;;;;7.63;2.83;;;21.40;53.90;;;;;;5172658;28;20084;-56
2021/12/19 07:43:52;;;;;;;6.45;2.80;;;21.40;53.90;;;;;;5166054;28;20053;-55
2021/12/19 07:46:25;;;;;;;7.38;2.85;;;21.40;53.90;;;;;;5161565;28;20194;-56
2021/12/19 07:48:58;;;;;;;7.13;2.83;;;21.40;53.90;;;;;;5164355;28;20048;-55
2021/12/19 07:51:30;;;;;;;4.65;3.00;;;21.50;54.00;;;;;;5171898;28;20057;-55
2021/12/19 07:54:03;;;;;;;5.43;2.75;;;21.40;54.00;;;;;;5173021;28;20045;-54
2021/12/19 07:56:35;;;;;;;7.63;2.70;;;21.50;54.10;;;;;;5176962;28;20061;-53
2021/12/19 07:59:08;;;;;;;6.00;3.13;;;21.50;54.20;;;;;;5178978;28;20041;-54
2021/12/19 08:01:40;;;;;;;6.53;2.92;;;21.50;54.20;;;;;;5174749;28;20053;-56
2021/12/19 08:04:13;;;;;;;4.85;2.35;;;21.50;54.20;;;;;;5179448;22;20049;-70
2021/12/19 08:06:45;;;;;;;4.70;3.30;;;21.50;54.20;;;;;;5203205;28;20061;-69
2021/12/19 08:09:35;;;;;;;6.13;2.72;;;21.50;54.20;;;;;;5193030;28;20453;-70
2021/12/19 08:12:08;;;;;;;4.03;2.58;;;21.50;54.20;;;;;;5192217;28;20048;-70
2021/12/19 08:14:40;;;;;;;5.82;2.80;;;21.50;54.30;;;;;;5197950;28;20041;-68
2021/12/19 08:17:13;;;;;;;4.72;3.45;;;21.50;54.40;;;;;;5203616;28;20413;-69
2021/12/19 08:19:45;;;;;;;6.35;2.75;;;21.50;54.30;;;;;;5194801;28;20045;-70
2021/12/19 08:22:19;;;;;;;10.07;2.95;;;21.50;54.40;;;;;;5197807;28;20053;-69
2021/12/19 08:24:52;;;;;;;7.20;3.47;;;21.50;54.40;;;;;;5198589;28;20041;-68
2021/12/19 08:27:25;;;;;;;6.15;2.75;;;21.50;54.40;;;;;;5200042;28;20064;-69
2021/12/19 08:29:57;;;;;;;9.63;2.90;;;21.50;54.40;;;;;;5203210;28;20508;-69
2021/12/19 08:32:30;;;;;;;8.45;2.40;;;21.50;54.40;;;;;;5202899;28;20080;-69
2021/12/19 08:35:03;;;;;;;6.43;2.55;;;21.50;54.40;;;;;;5201071;28;20057;-69
2021/12/19 08:37:36;;;;;;;7.18;2.70;;;21.50;54.40;;;;;;5193277;28;20083;-69
2021/12/19 08:40:11;;;;;;;5.25;2.70;;;21.50;54.50;;;;;;5192727;28;20037;-71
2021/12/19 08:42:44;;;;;;;9.63;2.67;;;21.50;54.50;;;;;;5196362;28;20068;-69
2021/12/19 08:45:16;;;;;;;10.68;2.85;;;21.50;54.50;;;;;;5191898;28;20064;-69
2021/12/19 08:47:50;;;;;;;8.88;2.72;;;21.60;54.60;;;;;;5191845;28;20053;-69
2021/12/19 08:50:23;;;;;;;6.80;2.72;;;21.60;54.60;;;;;;5194308;28;20045;-71
2021/12/19 08:52:56;;;;;;;4.63;2.30;;;21.60;54.60;;;;;;5199300;28;20038;-69
2021/12/19 08:55:28;;;;;;;9.35;2.65;;;21.60;54.60;;;;;;5199318;28;20060;-69
2021/12/19 08:58:00;;;;;;;6.93;2.47;;;21.60;54.70;;;;;;5176419;28;20052;-69
2021/12/19 09:00:33;;;;;;;17.77;2.92;;;21.60;54.80;;;;;;5186562;28;20045;-69
2021/12/19 09:03:07;;;;;;;14.98;2.83;;;21.60;55.00;;;;;;5184897;28;20056;-69
2021/12/19 09:05:40;;;;;;;10.60;3.10;;;21.60;55.10;;;;;;5181906;28;20501;-69
2021/12/19 09:08:12;;;;;;;17.70;4.32;;;21.60;55.20;;;;;;5187023;28;20068;-68
2021/12/19 09:10:44;;;;;;;35.63;8.38;;;21.60;54.30;;;;;;5188099;28;20045;-69
2021/12/19 09:13:17;;;;;;;16.65;6.97;;;21.60;51.10;;;;;;5194407;28;20045;-69
2021/12/19 09:15:50;;;;;;;15.55;8.27;;;21.50;50.10;;;;;;5192807;28;20049;-69
2021/12/19 09:18:23;;;;;;;22.27;7.47;;;21.50;49.40;;;;;;5198236;28;20045;-68
2021/12/19 09:20:55;;;;;;;20.63;7.55;;;21.50;49.20;;;;;;5196409;28;20484;-69
2021/12/19 09:23:28;;;;;;;11.90;7.40;;;21.50;48.80;;;;;;5191265;28;24664;-69
2021/12/19 09:26:01;;;;;;;15.63;6.97;;;21.50;48.60;;;;;;5188738;28;20789;-69
2021/12/19 09:28:33;;;;;;;11.13;7.60;;;21.50;49.10;;;;;;5193137;28;20499;-69
2021/12/19 09:31:06;;;;;;;11.25;6.68;;;21.40;49.30;;;;;;5195062;28;20045;-68
2021/12/19 09:33:38;;;;;;;9.85;6.53;;;21.50;48.30;;;;;;5193232;28;20048;-69
2021/12/19 09:36:10;;;;;;;10.40;6.15;;;21.40;48.30;;;;;;5194112;28;20071;-69
2021/12/19 09:38:48;;;;;;;11.77;5.78;;;21.40;49.00;;;;;;5192751;28;20060;-69
2021/12/19 09:41:28;;;;;;;10.25;6.38;;;21.40;48.50;;;;;;5191885;28;20496;-69
2021/12/19 09:44:03;;;;;;;8.88;6.60;;;21.40;48.30;;;;;;5197804;28;20762;-69
2021/12/19 09:46:38;;;;;;;10.82;5.45;;;21.40;48.00;;;;;;5187824;28;20048;-69
2021/12/19 09:49:14;;;;;;;15.88;5.00;;;21.40;49.10;;;;;;5192095;28;20052;-69
2021/12/19 09:51:48;;;;;;;15.57;4.97;;;21.40;49.20;;;;;;5169339;28;20072;-69
2021/12/19 09:54:21;;;;;;;23.88;5.72;;;21.50;49.60;;;;;;5187044;28;20516;-69
2021/12/19 09:56:54;;;;;;;26.77;5.03;;;21.40;49.90;;;;;;5175267;28;20053;-69
2021/12/19 09:59:26;;;;;;;19.50;5.28;;;21.50;50.30;;;;;;5176328;28;20056;-68
2021/12/19 10:01:59;;;;;;;8.82;5.55;;;21.40;50.40;;;;;;5180249;28;20408;-69
2021/12/19 10:04:36;;;;;;;16.58;4.93;;;21.40;47.90;;;;;;5175733;28;20060;-69
2021/12/19 10:07:17;;;;;;;9.73;4.82;;;21.40;49.40;;;;;;5175922;28;20041;-69
2021/12/19 10:10:04;;;;;;;13.75;4.78;;;21.50;49.80;;;;;;5189141;28;20064;-69
2021/12/19 10:15:28;;;;;;;15.77;4.65;;;21.50;49.70;;;;;;5191364;28;20061;-69
2021/12/19 10:18:15;;;;;;;11.73;4.10;;;21.50;49.50;;;;;;5192873;28;20599;-69
2021/12/19 10:20:53;;;;;;;14.52;4.88;;;21.50;49.40;;;;;;5193554;28;21047;-69
2021/12/19 10:23:31;;;;;;;13.68;5.18;;;21.50;49.30;;;;;;5200552;28;20053;-69
2021/12/19 10:26:09;;;;;;;11.85;4.75;;;21.50;49.20;;;;;;5205306;28;20037;-69
2021/12/19 10:28:56;;;;;;;13.98;4.65;;;21.50;49.10;;;;;;5185520;28;20052;-69
2021/12/19 10:31:29;;;;;;;24.67;6.40;;;21.50;49.00;;;;;;5212238;28;20059;-68
2021/12/19 10:34:22;;;;;;;7.90;4.00;;;21.50;49.30;;;;;;5198301;28;20871;-68
2021/12/19 10:36:55;;;;;;;10.30;4.50;;;21.50;49.20;;;;;;5197645;28;20059;-68
2021/12/19 10:42:27;;;;;;;12.90;3.92;;;21.50;49.40;;;;;;5176553;28;20085;-51
2021/12/19 10:47:51;;;;;;;16.98;4.38;;;21.60;49.90;;;;;;5173031;28;20041;-51
2021/12/19 10:50:44;;;;;;;8.50;3.50;;;21.60;50.10;;;;;;5176053;28;20226;-55
2021/12/19 10:53:17;;;;;;;14.07;4.15;;;21.70;50.20;;;;;;5177320;28;20053;-52
2021/12/19 10:55:50;;;;;;;7.68;3.63;;;21.70;50.30;;;;;;5179701;28;20048;-53
2021/12/19 10:58:58;;;;;;;11.87;4.93;;;21.70;50.40;;;;;;5159677;28;20049;-53
2021/12/19 11:01:54;;;;;;;10.65;3.53;;;21.70;50.40;;;;;;5158581;28;20311;-53
2021/12/19 11:04:27;;;;;;;4.88;3.22;;;21.80;50.70;;;;;;5173693;28;20041;-52
2021/12/19 11:07:02;;;;;;;10.65;3.40;;;21.80;50.80;;;;;;5174877;28;20510;-51
2021/12/19 11:09:37;;;;;;;11.00;4.32;;;21.90;50.90;;;;;;5162743;28;20054;-57
2021/12/19 11:12:11;;;;;;;13.75;3.55;;;21.90;51.00;;;;;;5154003;28;20061;-53
2021/12/19 11:14:47;;;;;;;11.88;3.58;;;22.00;51.40;;;;;;5168973;28;20049;-56
2021/12/19 11:17:23;;;;;;;13.13;3.20;;;22.00;51.50;;;;;;5153608;28;20401;-57
2021/12/19 11:19:57;;;;;;;14.90;3.85;;;22.00;51.50;;;;;;5165267;28;20256;-55
2021/12/19 11:22:29;;;;;;;;;;;22.10;51.60;;;;;;5155991;28;20405;-55
2021/12/19 11:25:05;;;;;;;7.60;3.40;;;22.10;51.80;;;;;;5182087;28;19929;-55
2021/12/19 11:27:37;;;;;;;18.65;3.60;;;22.10;52.50;;;;;;5164384;28;20052;-53
2021/12/19 11:30:12;;;;;;;7.38;3.20;;;22.20;51.80;;;;;;5167523;28;20053;-52
2021/12/19 11:33:04;;;;;;;16.05;3.47;;;22.30;51.70;;;;;;5163224;28;20062;-56
2021/12/19 11:35:48;;;;;;;6.95;3.53;;;22.40;51.50;;;;;;5162890;28;20045;-58
2021/12/19 11:38:22;;;;;;;6.20;2.70;;;22.50;51.10;;;;;;5161267;28;20197;-56
2021/12/19 11:40:55;;;;;;;8.02;3.10;;;22.60;50.50;;;;;;5146922;28;20064;-55
2021/12/19 11:43:38;;;;;;;12.95;3.30;;;22.70;49.70;;;;;;5148173;28;20439;-55
2021/12/19 11:46:21;;;;;;;7.72;3.22;;;22.80;49.10;;;;;;5156429;28;20045;-55
2021/12/19 11:49:18;;;;;;;5.77;3.60;;;22.80;49.20;;;;;;5152629;28;20821;-56
2021/12/19 11:52:23;;;;;;;6.53;2.80;;;22.90;49.10;;;;;;5156504;28;20046;-52
2021/12/19 11:55:23;;;;;;;7.68;2.95;;;23.00;49.00;;;;;;5134586;28;20054;-55
2021/12/19 11:58:08;;;;;;;9.35;2.97;;;23.10;49.00;;;;;;5153967;28;20046;-55
2021/12/19 12:00:47;;;;;;;6.47;2.85;;;23.10;49.00;;;;;;5164115;28;20054;-55
2021/12/19 12:03:21;;;;;;;8.05;3.20;;;23.20;49.10;;;;;;5152156;28;20054;-53
2021/12/19 12:06:09;;;;;;;31.63;4.70;;;23.20;49.20;;;;;;5138322;28;20053;-60
2021/12/19 12:09:11;;;;;;;13.68;3.95;;;23.10;49.40;;;;;;5139170;28;20053;-58
2021/12/19 12:11:59;;;;;;;15.65;3.42;;;23.10;49.00;;;;;;5157349;28;20490;-54
2021/12/19 12:14:35;;;;;;;14.43;3.50;;;23.10;48.80;;;;;;5155405;28;20046;-55
2021/12/19 12:17:21;;;;;;;8.98;3.05;;;23.10;48.80;;;;;;5157257;28;20485;-54
2021/12/19 12:19:57;;;;;;;16.92;4.22;;;23.10;48.60;;;;;;5161414;28;20266;-53
2021/12/19 12:22:42;;;;;;;8.57;3.47;;;23.10;48.60;;;;;;5141826;28;20050;-55
2021/12/19 12:25:17;;;;;;;9.98;3.67;;;23.10;48.40;;;;;;5159098;28;20053;-52
2021/12/19 12:28:02;;;;;;;8.23;3.63;;;23.10;48.40;;;;;;5158244;28;20532;-52
2021/12/19 12:30:36;;;;;;;11.93;3.13;;;23.10;48.40;;;;;;5144783;28;20052;-55
2021/12/19 12:33:14;;;;;;;7.97;3.30;;;23.10;48.40;;;;;;5139127;28;20049;-53
2021/12/19 12:35:50;;;;;;;15.70;3.63;;;23.00;48.40;;;;;;5136295;28;20690;-53
2021/12/19 12:38:23;;;;;;;12.45;3.53;;;23.00;48.40;;;;;;5135906;28;20512;-51
2021/12/19 12:41:03;;;;;;;12.48;3.40;;;23.00;48.50;;;;;;5125773;28;20060;-56
2021/12/19 12:43:39;;;;;;;11.48;3.15;;;23.00;48.50;;;;;;5127358;28;20313;-54
2021/12/19 12:46:16;;;;;;;14.35;3.95;;;23.00;48.40;;;;;;5132829;28;21307;-52
2021/12/19 12:49:01;;;;;;;12.75;3.75;;;23.00;48.40;;;;;;5131213;28;20049;-56
2021/12/19 12:51:42;;;;;;;11.32;3.65;;;23.00;48.30;;;;;;5137677;28;20042;-56
2021/12/19 12:54:25;;;;;;;13.00;3.42;;;23.00;48.30;;;;;;5126638;28;20219;-55
2021/12/19 12:57:00;;;;;;;8.40;3.42;;;23.00;48.20;;;;;;5122931;28;20042;-55
2021/12/19 12:59:38;;;;;;;14.20;4.15;;;23.00;48.30;;;;;;5136211;28;20064;-54
2021/12/19 13:02:17;;;;;;;10.57;3.65;;;23.00;48.30;;;;;;5132448;28;20437;-56
2021/12/19 13:04:50;;;;;;;12.50;3.80;;;23.00;48.30;;;;;;5162651;28;20513;-55
2021/12/19 13:07:25;;;;;;;12.70;3.50;;;23.00;48.40;;;;;;5151147;28;20048;-52
2021/12/19 13:10:00;;;;;;;9.52;3.40;;;23.10;48.40;;;;;;5151729;28;20050;-54
2021/12/19 13:12:38;;;;;;;15.05;3.45;;;23.00;48.30;;;;;;5149918;28;20622;-54
2021/12/19 13:15:15;;;;;;;10.50;3.30;;;23.00;48.30;;;;;;5152101;28;20042;-56
2021/12/19 13:17:50;;;;;;;10.05;3.28;;;23.00;48.40;;;;;;5166727;28;20592;-52
2021/12/19 13:20:29;;;;;;;8.75;3.53;;;22.90;48.40;;;;;;5140639;28;20045;-56
2021/12/19 13:23:03;;;;;;;9.05;3.30;;;22.90;48.40;;;;;;5142760;28;20054;-54
2021/12/19 13:25:44;;;;;;;8.57;3.33;;;22.90;48.50;;;;;;5136957;28;20406;-54
2021/12/19 13:28:20;;;;;;;7.63;2.92;;;22.90;48.50;;;;;;5151536;28;20056;-53
2021/12/19 13:30:55;;;;;;;7.15;2.70;;;22.90;48.50;;;;;;5137177;28;20049;-56
2021/12/19 13:33:30;;;;;;;14.45;3.67;;;22.90;48.50;;;;;;5148890;28;20050;-56
2021/12/19 13:36:02;;;;;;;12.93;2.90;;;22.90;48.60;;;;;;5132902;28;20056;-54
2021/12/19 13:38:35;;;;;;;11.88;3.42;;;22.90;48.60;;;;;;5142425;28;20045;-55
2021/12/19 13:41:10;;;;;;;7.22;3.33;;;22.90;48.60;;;;;;5143997;28;20064;-55
2021/12/19 13:43:43;;;;;;;5.82;2.78;;;22.90;48.70;;;;;;5145381;28;20556;-53
2021/12/19 13:46:16;;;;;;;22.13;3.83;;;22.90;48.80;;;;;;5147767;28;20064;-53
2021/12/19 13:48:56;;;;;;;11.60;3.38;;;22.90;49.00;;;;;;5156791;28;20329;-54
2021/12/19 13:51:31;;;;;;;14.98;3.75;;;22.90;49.00;;;;;;5157828;28;20049;-55
2021/12/19 13:54:05;;;;;;;11.48;3.50;;;22.90;49.00;;;;;;5154340;28;20056;-54
2021/12/19 13:56:38;;;;;;;16.30;3.25;;;22.90;49.00;;;;;;5156732;28;20049;-55
2021/12/19 13:59:21;;;;;;;8.48;3.17;;;22.90;48.90;;;;;;5142641;28;20046;-52
2021/12/19 14:01:54;;;;;;;12.55;3.80;;;23.00;49.00;;;;;;5147076;28;20046;-54
2021/12/19 14:04:30;;;;;;;15.18;3.05;;;23.00;49.00;;;;;;5148987;28;20152;-54
2021/12/19 14:07:10;;;;;;;11.68;3.67;;;23.00;48.60;;;;;;5190254;22;20056;-70
2021/12/19 14:10:02;;;;;;;8.25;3.17;;;23.10;48.60;;;;;;5185745;28;20040;-70
2021/12/19 14:13:29;;;;;;;11.32;3.53;;;23.10;48.40;;;;;;5193828;28;20041;-70
2021/12/19 14:15:33;;;;;;;11.68;3.08;;;23.20;48.30;;;;;;5180160;28;20049;-69
2021/12/19 14:18:45;;;;;;;15.30;3.35;;;23.20;48.80;;;;;;5190349;28;20048;-69
2021/12/19 14:21:29;;;;;;;11.70;3.83;;;23.20;47.90;;;;;;5187609;28;20478;-69
2021/12/19 14:24:11;;;;;;;9.50;3.13;;;23.30;47.90;;;;;;5191259;28;20044;-70
2021/12/19 14:26:46;;;;;;;11.48;2.58;;;23.30;47.80;;;;;;5189264;28;20052;-70
2021/12/19 14:29:25;;;;;;;10.90;3.25;;;23.30;47.80;;;;;;5192008;28;20037;-69
2021/12/19 14:32:09;;;;;;;9.40;3.38;;;23.30;47.80;;;;;;5193340;28;20045;-70
2021/12/19 14:34:53;;;;;;;7.13;2.60;;;23.30;47.80;;;;;;5183356;28;20067;-70
2021/12/19 14:37:34;;;;;;;10.60;2.70;;;23.30;47.80;;;;;;5184831;28;20053;-69
2021/12/19 14:40:12;;;;;;;4.70;2.40;;;23.20;47.80;;;;;;5193349;28;20068;-70